Impacts METAR Board INFO
IDs:

KFLL - Ft Lauderdale-Hollyw, FL, US

Updated at: 0845 UTC 22 Feb 2018
Potential Impact None Slight Moderate High
Time21/20Z 21/21Z 21/22Z 21/23Z 22/00Z 22/01Z 22/02Z 22/03Z 22/04Z 22/05Z 22/06Z 22/07Z 22/08Z
VIS10 10 10 10 10 10 10 10 10 10
CIG-- 49 -- -- -- -- -- 48 50 --
CoverSCTBKNSCTSCTFEWFEWSCTBKNBKNFEW
FltCatVFRVFRVFRVFRVFRVFRVFRVFRVFRVFR
WX--------------------
WDir11090909090110110110100110
WSpd19 16 15 16 15 16 15 17 16 16
WGst-- -- -- -- -- -- -- -- -- --
Raw hourly METARs
KFLL 211953Z 11019KT 10SM FEW026 SCT031 SCT040 27/22 A3031 RMK AO2 SLP261 T02670217
KFLL 212053Z 09016KT 10SM FEW024 SCT035 BKN049 27/21 A3029 RMK AO2 SLP257 T02670211 56013
KFLL 212153Z 09015KT 10SM SCT026 26/21 A3029 RMK AO2 SLP258 T02560206
KFLL 212253Z 09016KT 10SM FEW023 SCT050 24/21 A3031 RMK AO2 PK WND 09028/2220 SLP263 T02440206
KFLL 212353Z 09015KT 10SM FEW023 24/19 A3031 RMK AO2 SLP264 T02440194 10283 20244 53007



KFLL 220353Z 11016KT 10SM FEW025 24/21 A3033 RMK AO2 SLP271 T02440206
KFLL 220453Z 11015KT 10SM SCT025 24/21 A3032 RMK AO2 SLP267 T02440206 402830239
KFLL 220553Z 11017KT 10SM SCT024 BKN048 24/21 A3031 RMK AO2 SLP264 SCT V BKN T02440211 10244 20239 58006
KFLL 220653Z 10016KT 10SM SCT023 BKN050 24/21 A3031 RMK AO2 SLP263 T02390211
KFLL 220753Z 11016KT 10SM FEW025 FEW040 24/21 A3030 RMK AO2 SLP259 T02390206